Gulf Bridge — A8JM5 — position and weather

sailwx.info

Track history (hours):
 
Tides and Currents Weather Stations Pressure Air Temp Water Temp Dewpoint Dewpoint Depression Visibility Wind Speed Wind Dir Waves Ship Positions

Gulf Bridge

Last reported at 2016-Sep-25 21:31 UTC. Time now 2016-Sep-30 23:54 UTC.
Position N 22°20' E 114°07'.

Length 213 m; beam 32.2 m; draft 11.5 m.

Type: Cargo ship. MMSI: 636017628.

Date/timePositionNaut miles runAvg speedWind from/ knotsBaromVisibWave heightAir tempDewpointWater temp
2016-Sep-25 21:31N 22°20' E 114°07'0 0.0
2016-Sep-25 17:26N 22°20' E 114°07'21411.3
2016-Sep-24 22:34N 23°26' E 117°48'2019.2
2016-Sep-24 21:32N 23°43' E 117°59'3417.0
2016-Sep-24 19:33N 24°14' E 118°13'1312.5
2016-Sep-24 18:33N 24°24' E 118°06'6 6.1
2016-Sep-24 17:32N 24°31' E 118°05'0 0.0
2016-Sep-24 16:32N 24°31' E 118°05'0 0.0
2016-Sep-24 14:32N 24°31' E 118°05'0 0.0
2016-Sep-24 12:32N 24°31' E 118°05'0 0.0
2016-Sep-24 10:32N 24°31' E 118°05'0 0.0
2016-Sep-24 09:26N 24°31' E 118°05'30 5.1
2016-Sep-24 03:32N 24°14' E 118°33'1 1.1
2016-Sep-24 02:32N 24°16' E 118°33'1 1.1
2016-Sep-24 01:30N 24°16' E 118°34'8 8.5
2016-Sep-24 00:31N 24°20' E 118°42'  
Track history (hours):
 
Tides and Currents Weather Stations Pressure Air Temp Water Temp Dewpoint Dewpoint Depression Visibility Wind Speed Wind Dir Waves Ship Positions

Gulf Bridge

Last reported at 2016-Sep-25 21:31 UTC. Time now 2016-Sep-30 23:54 UTC.
Position N 22°20' E 114°07'.

Length 213 m; beam 32.2 m; draft 11.5 m.

Type: Cargo ship. MMSI: 636017628.

Date/timePositionNaut miles runAvg speedWind from/ knotsBaromVisibWave heightAir tempDewpointWater temp
2016-Sep-25 21:31N 22°20' E 114°07'0 0.0
2016-Sep-25 17:26N 22°20' E 114°07'21411.3
2016-Sep-24 22:34N 23°26' E 117°48'2019.2
2016-Sep-24 21:32N 23°43' E 117°59'3417.0
2016-Sep-24 19:33N 24°14' E 118°13'1312.5
2016-Sep-24 18:33N 24°24' E 118°06'6 6.1
2016-Sep-24 17:32N 24°31' E 118°05'0 0.0
2016-Sep-24 16:32N 24°31' E 118°05'0 0.0
2016-Sep-24 14:32N 24°31' E 118°05'0 0.0
2016-Sep-24 12:32N 24°31' E 118°05'0 0.0
2016-Sep-24 10:32N 24°31' E 118°05'0 0.0
2016-Sep-24 09:26N 24°31' E 118°05'30 5.1
2016-Sep-24 03:32N 24°14' E 118°33'1 1.1
2016-Sep-24 02:32N 24°16' E 118°33'1 1.1
2016-Sep-24 01:30N 24°16' E 118°34'8 8.5
2016-Sep-24 00:31N 24°20' E 118°42'  

Dump ship's entire track history